sensor_id;sensor_type;location;lat;lon;timestamp;P1;durP1;ratioP1;P2;durP2;ratioP2
70592;SDS011;58294;42.988;20.338;2023-02-15T00:01:50;85.30;;;55.38;;
70592;SDS011;58294;42.988;20.338;2023-02-15T00:04:17;48.97;;;37.08;;
70592;SDS011;58294;42.988;20.338;2023-02-15T00:06:45;52.00;;;37.90;;
70592;SDS011;58294;42.988;20.338;2023-02-15T00:09:10;52.75;;;39.45;;
70592;SDS011;58294;42.988;20.338;2023-02-15T00:11:37;69.53;;;49.85;;
70592;SDS011;58294;42.988;20.338;2023-02-15T00:14:19;65.03;;;45.30;;
70592;SDS011;58294;42.988;20.338;2023-02-15T00:16:46;67.20;;;48.17;;
70592;SDS011;58294;42.988;20.338;2023-02-15T00:19:14;57.33;;;41.58;;
70592;SDS011;58294;42.988;20.338;2023-02-15T00:21:41;72.30;;;52.03;;
70592;SDS011;58294;42.988;20.338;2023-02-15T00:24:09;84.10;;;60.03;;
70592;SDS011;58294;42.988;20.338;2023-02-15T00:26:37;74.97;;;55.70;;
70592;SDS011;58294;42.988;20.338;2023-02-15T00:29:03;45.03;;;34.78;;
70592;SDS011;58294;42.988;20.338;2023-02-15T00:31:30;69.90;;;53.10;;
70592;SDS011;58294;42.988;20.338;2023-02-15T00:34:16;59.40;;;46.03;;
70592;SDS011;58294;42.988;20.338;2023-02-15T00:36:44;54.38;;;42.08;;
70592;SDS011;58294;42.988;20.338;2023-02-15T00:39:10;56.90;;;43.80;;
70592;SDS011;58294;42.988;20.338;2023-02-15T00:41:36;51.17;;;36.97;;
70592;SDS011;58294;42.988;20.338;2023-02-15T00:44:02;56.00;;;39.08;;
70592;SDS011;58294;42.988;20.338;2023-02-15T00:46:29;47.30;;;32.40;;
70592;SDS011;58294;42.988;20.338;2023-02-15T00:48:54;39.47;;;31.40;;
70592;SDS011;58294;42.988;20.338;2023-02-15T00:51:20;51.50;;;35.63;;
70592;SDS011;58294;42.988;20.338;2023-02-15T00:53:46;39.60;;;28.88;;
70592;SDS011;58294;42.988;20.338;2023-02-15T00:56:12;53.15;;;37.80;;
70592;SDS011;58294;42.988;20.338;2023-02-15T00:58:38;42.60;;;29.55;;
70592;SDS011;58294;42.988;20.338;2023-02-15T01:01:05;41.78;;;28.13;;
70592;SDS011;58294;42.988;20.338;2023-02-15T01:03:35;36.13;;;28.40;;
70592;SDS011;58294;42.988;20.338;2023-02-15T01:06:01;34.95;;;25.75;;
70592;SDS011;58294;42.988;20.338;2023-02-15T01:08:28;37.00;;;26.02;;
70592;SDS011;58294;42.988;20.338;2023-02-15T01:10:54;33.17;;;23.90;;
70592;SDS011;58294;42.988;20.338;2023-02-15T01:13:20;33.00;;;23.45;;
70592;SDS011;58294;42.988;20.338;2023-02-15T01:15:45;28.65;;;22.17;;
70592;SDS011;58294;42.988;20.338;2023-02-15T01:18:17;34.67;;;25.33;;
70592;SDS011;58294;42.988;20.338;2023-02-15T01:20:43;25.63;;;20.88;;
70592;SDS011;58294;42.988;20.338;2023-02-15T01:23:09;28.10;;;22.35;;
70592;SDS011;58294;42.988;20.338;2023-02-15T01:25:34;34.92;;;23.23;;
70592;SDS011;58294;42.988;20.338;2023-02-15T01:28:01;34.47;;;23.75;;
70592;SDS011;58294;42.988;20.338;2023-02-15T01:30:27;31.38;;;23.85;;
70592;SDS011;58294;42.988;20.338;2023-02-15T01:32:53;33.42;;;25.33;;
70592;SDS011;58294;42.988;20.338;2023-02-15T01:35:19;33.45;;;26.27;;
70592;SDS011;58294;42.988;20.338;2023-02-15T01:37:45;35.85;;;25.13;;
70592;SDS011;58294;42.988;20.338;2023-02-15T01:40:14;41.67;;;30.90;;
70592;SDS011;58294;42.988;20.338;2023-02-15T01:42:41;44.03;;;33.13;;
70592;SDS011;58294;42.988;20.338;2023-02-15T01:50:30;34.08;;;25.25;;
70592;SDS011;58294;42.988;20.338;2023-02-15T01:53:06;32.22;;;23.67;;
70592;SDS011;58294;42.988;20.338;2023-02-15T01:55:44;34.58;;;22.70;;
70592;SDS011;58294;42.988;20.338;2023-02-15T01:58:22;40.38;;;25.70;;
70592;SDS011;58294;42.988;20.338;2023-02-15T02:00:50;38.88;;;25.15;;
70592;SDS011;58294;42.988;20.338;2023-02-15T02:03:18;33.63;;;26.15;;
70592;SDS011;58294;42.988;20.338;2023-02-15T02:05:50;44.78;;;31.30;;
70592;SDS011;58294;42.988;20.338;2023-02-15T02:08:17;38.67;;;28.08;;
70592;SDS011;58294;42.988;20.338;2023-02-15T02:10:43;30.33;;;22.45;;
70592;SDS011;58294;42.988;20.338;2023-02-15T02:13:08;33.53;;;24.42;;
70592;SDS011;58294;42.988;20.338;2023-02-15T02:15:45;37.38;;;28.40;;
70592;SDS011;58294;42.988;20.338;2023-02-15T02:26:37;59.78;;;39.42;;
70592;SDS011;58294;42.988;20.338;2023-02-15T02:32:04;54.50;;;38.20;;
70592;SDS011;58294;42.988;20.338;2023-02-15T02:34:59;59.08;;;40.20;;
70592;SDS011;58294;42.988;20.338;2023-02-15T02:45:47;46.75;;;33.10;;
70592;SDS011;58294;42.988;20.338;2023-02-15T02:48:22;57.97;;;36.60;;
70592;SDS011;58294;42.988;20.338;2023-02-15T02:50:51;44.38;;;32.47;;
70592;SDS011;58294;42.988;20.338;2023-02-15T02:53:17;41.65;;;28.52;;
70592;SDS011;58294;42.988;20.338;2023-02-15T02:55:44;35.80;;;23.95;;
70592;SDS011;58294;42.988;20.338;2023-02-15T02:58:14;42.08;;;31.70;;
70592;SDS011;58294;42.988;20.338;2023-02-15T03:01:20;42.28;;;28.92;;
70592;SDS011;58294;42.988;20.338;2023-02-15T03:07:00;28.83;;;22.17;;
70592;SDS011;58294;42.988;20.338;2023-02-15T03:09:42;34.58;;;25.27;;
70592;SDS011;58294;42.988;20.338;2023-02-15T03:12:22;30.10;;;21.45;;
70592;SDS011;58294;42.988;20.338;2023-02-15T03:14:54;30.50;;;20.52;;
70592;SDS011;58294;42.988;20.338;2023-02-15T03:17:26;29.92;;;21.23;;
70592;SDS011;58294;42.988;20.338;2023-02-15T03:19:56;27.38;;;20.92;;
70592;SDS011;58294;42.988;20.338;2023-02-15T03:22:31;33.78;;;24.98;;
70592;SDS011;58294;42.988;20.338;2023-02-15T03:25:07;34.20;;;23.48;;
70592;SDS011;58294;42.988;20.338;2023-02-15T03:27:45;30.67;;;22.75;;
70592;SDS011;58294;42.988;20.338;2023-02-15T03:30:16;29.00;;;20.35;;
70592;SDS011;58294;42.988;20.338;2023-02-15T03:32:45;27.38;;;20.42;;
70592;SDS011;58294;42.988;20.338;2023-02-15T03:35:12;24.05;;;18.50;;
70592;SDS011;58294;42.988;20.338;2023-02-15T03:37:42;26.85;;;19.65;;
70592;SDS011;58294;42.988;20.338;2023-02-15T03:40:26;26.90;;;18.23;;
70592;SDS011;58294;42.988;20.338;2023-02-15T03:45:44;29.33;;;20.98;;
70592;SDS011;58294;42.988;20.338;2023-02-15T03:48:22;25.80;;;17.40;;
70592;SDS011;58294;42.988;20.338;2023-02-15T03:51:08;26.05;;;18.13;;
70592;SDS011;58294;42.988;20.338;2023-02-15T03:53:56;22.38;;;16.45;;
70592;SDS011;58294;42.988;20.338;2023-02-15T03:56:23;20.55;;;14.65;;
70592;SDS011;58294;42.988;20.338;2023-02-15T03:58:49;26.80;;;19.08;;
70592;SDS011;58294;42.988;20.338;2023-02-15T04:01:38;22.48;;;14.85;;
70592;SDS011;58294;42.988;20.338;2023-02-15T04:04:26;20.77;;;14.85;;
70592;SDS011;58294;42.988;20.338;2023-02-15T04:06:53;22.08;;;15.55;;
70592;SDS011;58294;42.988;20.338;2023-02-15T04:09:18;24.27;;;15.18;;
70592;SDS011;58294;42.988;20.338;2023-02-15T04:12:03;23.85;;;16.88;;
70592;SDS011;58294;42.988;20.338;2023-02-15T04:14:29;22.80;;;18.17;;
70592;SDS011;58294;42.988;20.338;2023-02-15T04:17:13;22.88;;;17.33;;
70592;SDS011;58294;42.988;20.338;2023-02-15T04:19:38;29.25;;;18.10;;
70592;SDS011;58294;42.988;20.338;2023-02-15T04:22:22;36.97;;;27.93;;
70592;SDS011;58294;42.988;20.338;2023-02-15T04:25:06;33.93;;;23.40;;
70592;SDS011;58294;42.988;20.338;2023-02-15T04:27:38;18.80;;;14.68;;
70592;SDS011;58294;42.988;20.338;2023-02-15T04:30:06;29.42;;;19.92;;
70592;SDS011;58294;42.988;20.338;2023-02-15T04:32:33;28.10;;;18.85;;
70592;SDS011;58294;42.988;20.338;2023-02-15T04:34:59;33.55;;;23.02;;
70592;SDS011;58294;42.988;20.338;2023-02-15T04:37:25;32.97;;;22.90;;
70592;SDS011;58294;42.988;20.338;2023-02-15T04:39:51;28.35;;;20.25;;
70592;SDS011;58294;42.988;20.338;2023-02-15T04:42:17;28.25;;;20.30;;
70592;SDS011;58294;42.988;20.338;2023-02-15T04:44:42;25.40;;;20.20;;
70592;SDS011;58294;42.988;20.338;2023-02-15T04:47:08;32.33;;;22.38;;
70592;SDS011;58294;42.988;20.338;2023-02-15T04:49:34;29.65;;;22.42;;
70592;SDS011;58294;42.988;20.338;2023-02-15T04:52:00;30.63;;;21.08;;
70592;SDS011;58294;42.988;20.338;2023-02-15T04:54:26;30.10;;;21.70;;
70592;SDS011;58294;42.988;20.338;2023-02-15T04:56:51;30.58;;;20.55;;
70592;SDS011;58294;42.988;20.338;2023-02-15T04:59:17;34.05;;;24.75;;
70592;SDS011;58294;42.988;20.338;2023-02-15T05:01:43;50.55;;;39.17;;
70592;SDS011;58294;42.988;20.338;2023-02-15T05:04:08;60.70;;;44.50;;
70592;SDS011;58294;42.988;20.338;2023-02-15T05:06:34;83.25;;;60.20;;
70592;SDS011;58294;42.988;20.338;2023-02-15T05:09:00;91.22;;;61.35;;
70592;SDS011;58294;42.988;20.338;2023-02-15T05:11:26;108.18;;;70.22;;
70592;SDS011;58294;42.988;20.338;2023-02-15T05:13:52;58.92;;;36.80;;
70592;SDS011;58294;42.988;20.338;2023-02-15T05:16:18;37.28;;;29.67;;
70592;SDS011;58294;42.988;20.338;2023-02-15T05:18:44;27.88;;;20.40;;
70592;SDS011;58294;42.988;20.338;2023-02-15T05:21:09;28.30;;;20.40;;
70592;SDS011;58294;42.988;20.338;2023-02-15T05:23:35;31.15;;;20.40;;
70592;SDS011;58294;42.988;20.338;2023-02-15T05:26:01;32.80;;;22.05;;
70592;SDS011;58294;42.988;20.338;2023-02-15T05:28:46;36.35;;;27.40;;
70592;SDS011;58294;42.988;20.338;2023-02-15T05:31:18;56.65;;;38.42;;
70592;SDS011;58294;42.988;20.338;2023-02-15T05:33:44;76.63;;;49.72;;
70592;SDS011;58294;42.988;20.338;2023-02-15T05:36:11;42.10;;;30.08;;
70592;SDS011;58294;42.988;20.338;2023-02-15T05:38:37;34.22;;;27.33;;
70592;SDS011;58294;42.988;20.338;2023-02-15T05:41:03;36.80;;;25.92;;
70592;SDS011;58294;42.988;20.338;2023-02-15T05:43:30;31.65;;;25.65;;
70592;SDS011;58294;42.988;20.338;2023-02-15T05:45:57;37.50;;;27.05;;
70592;SDS011;58294;42.988;20.338;2023-02-15T05:48:24;37.42;;;26.50;;
70592;SDS011;58294;42.988;20.338;2023-02-15T05:51:01;44.80;;;36.80;;
70592;SDS011;58294;42.988;20.338;2023-02-15T05:53:30;43.03;;;34.65;;
70592;SDS011;58294;42.988;20.338;2023-02-15T05:55:57;51.22;;;36.92;;
70592;SDS011;58294;42.988;20.338;2023-02-15T05:58:27;43.47;;;34.05;;
70592;SDS011;58294;42.988;20.338;2023-02-15T06:00:54;42.75;;;29.38;;
70592;SDS011;58294;42.988;20.338;2023-02-15T06:03:20;33.45;;;24.98;;
70592;SDS011;58294;42.988;20.338;2023-02-15T06:05:46;37.00;;;26.75;;
70592;SDS011;58294;42.988;20.338;2023-02-15T06:08:11;44.17;;;31.00;;
70592;SDS011;58294;42.988;20.338;2023-02-15T06:10:37;37.60;;;27.98;;
70592;SDS011;58294;42.988;20.338;2023-02-15T06:13:05;43.08;;;34.90;;
70592;SDS011;58294;42.988;20.338;2023-02-15T06:15:31;45.50;;;35.00;;
70592;SDS011;58294;42.988;20.338;2023-02-15T06:17:57;47.42;;;35.97;;
70592;SDS011;58294;42.988;20.338;2023-02-15T06:20:23;48.33;;;32.30;;
70592;SDS011;58294;42.988;20.338;2023-02-15T06:22:49;47.40;;;37.88;;
70592;SDS011;58294;42.988;20.338;2023-02-15T06:25:15;47.30;;;38.42;;
70592;SDS011;58294;42.988;20.338;2023-02-15T06:27:41;36.97;;;27.58;;
70592;SDS011;58294;42.988;20.338;2023-02-15T06:30:08;43.22;;;31.80;;
70592;SDS011;58294;42.988;20.338;2023-02-15T06:32:35;44.75;;;32.30;;
70592;SDS011;58294;42.988;20.338;2023-02-15T06:35:01;45.45;;;32.65;;
70592;SDS011;58294;42.988;20.338;2023-02-15T06:37:27;48.50;;;38.80;;
70592;SDS011;58294;42.988;20.338;2023-02-15T06:39:52;31.67;;;25.42;;
70592;SDS011;58294;42.988;20.338;2023-02-15T06:42:18;30.98;;;22.23;;
70592;SDS011;58294;42.988;20.338;2023-02-15T06:44:44;103.75;;;90.30;;
70592;SDS011;58294;42.988;20.338;2023-02-15T06:47:10;61.22;;;48.30;;
70592;SDS011;58294;42.988;20.338;2023-02-15T06:49:36;75.03;;;58.22;;
70592;SDS011;58294;42.988;20.338;2023-02-15T06:52:02;101.60;;;79.18;;
70592;SDS011;58294;42.988;20.338;2023-02-15T06:54:29;30.35;;;23.30;;
70592;SDS011;58294;42.988;20.338;2023-02-15T06:56:54;27.70;;;20.65;;
70592;SDS011;58294;42.988;20.338;2023-02-15T06:59:20;34.38;;;26.75;;
70592;SDS011;58294;42.988;20.338;2023-02-15T07:01:46;47.47;;;32.55;;
70592;SDS011;58294;42.988;20.338;2023-02-15T07:04:12;27.13;;;21.73;;
70592;SDS011;58294;42.988;20.338;2023-02-15T07:06:38;31.10;;;25.88;;
70592;SDS011;58294;42.988;20.338;2023-02-15T07:09:04;31.15;;;22.52;;
70592;SDS011;58294;42.988;20.338;2023-02-15T07:11:30;29.27;;;22.55;;
70592;SDS011;58294;42.988;20.338;2023-02-15T07:14:14;31.70;;;22.58;;
70592;SDS011;58294;42.988;20.338;2023-02-15T07:16:40;44.28;;;29.30;;
70592;SDS011;58294;42.988;20.338;2023-02-15T07:19:06;87.18;;;56.20;;
70592;SDS011;58294;42.988;20.338;2023-02-15T07:21:32;27.20;;;19.67;;
70592;SDS011;58294;42.988;20.338;2023-02-15T07:23:59;28.73;;;21.27;;
70592;SDS011;58294;42.988;20.338;2023-02-15T07:26:25;24.05;;;19.30;;
70592;SDS011;58294;42.988;20.338;2023-02-15T07:28:51;27.55;;;21.15;;
70592;SDS011;58294;42.988;20.338;2023-02-15T07:31:16;29.92;;;21.83;;
70592;SDS011;58294;42.988;20.338;2023-02-15T07:33:42;29.52;;;21.27;;
70592;SDS011;58294;42.988;20.338;2023-02-15T07:36:08;26.95;;;19.85;;
70592;SDS011;58294;42.988;20.338;2023-02-15T07:38:37;28.27;;;22.70;;
70592;SDS011;58294;42.988;20.338;2023-02-15T07:41:05;23.35;;;17.25;;
70592;SDS011;58294;42.988;20.338;2023-02-15T07:43:33;61.90;;;37.97;;
70592;SDS011;58294;42.988;20.338;2023-02-15T07:46:00;47.33;;;31.55;;
70592;SDS011;58294;42.988;20.338;2023-02-15T07:48:29;54.60;;;40.20;;
70592;SDS011;58294;42.988;20.338;2023-02-15T07:50:58;31.08;;;21.15;;
70592;SDS011;58294;42.988;20.338;2023-02-15T07:53:25;31.45;;;23.30;;
70592;SDS011;58294;42.988;20.338;2023-02-15T07:55:51;58.38;;;42.28;;
70592;SDS011;58294;42.988;20.338;2023-02-15T07:58:17;73.05;;;44.67;;
70592;SDS011;58294;42.988;20.338;2023-02-15T08:00:44;31.25;;;21.42;;
70592;SDS011;58294;42.988;20.338;2023-02-15T08:03:25;30.60;;;22.65;;
70592;SDS011;58294;42.988;20.338;2023-02-15T08:05:57;25.17;;;17.35;;
70592;SDS011;58294;42.988;20.338;2023-02-15T08:08:24;22.80;;;15.80;;
70592;SDS011;58294;42.988;20.338;2023-02-15T08:13:46;26.23;;;17.40;;
70592;SDS011;58294;42.988;20.338;2023-02-15T08:18:57;23.25;;;16.95;;
70592;SDS011;58294;42.988;20.338;2023-02-15T08:21:25;23.02;;;18.10;;
70592;SDS011;58294;42.988;20.338;2023-02-15T08:23:53;24.42;;;19.13;;
70592;SDS011;58294;42.988;20.338;2023-02-15T08:26:19;24.77;;;18.83;;
70592;SDS011;58294;42.988;20.338;2023-02-15T08:28:46;27.38;;;20.02;;
70592;SDS011;58294;42.988;20.338;2023-02-15T08:31:12;27.08;;;20.17;;
70592;SDS011;58294;42.988;20.338;2023-02-15T08:33:39;26.95;;;20.60;;
70592;SDS011;58294;42.988;20.338;2023-02-15T08:36:07;21.92;;;16.77;;
70592;SDS011;58294;42.988;20.338;2023-02-15T08:38:37;20.83;;;14.82;;
70592;SDS011;58294;42.988;20.338;2023-02-15T08:43:38;26.05;;;18.75;;
70592;SDS011;58294;42.988;20.338;2023-02-15T08:46:05;31.95;;;21.45;;
70592;SDS011;58294;42.988;20.338;2023-02-15T08:48:31;36.97;;;28.63;;
70592;SDS011;58294;42.988;20.338;2023-02-15T08:50:57;23.70;;;17.48;;
70592;SDS011;58294;42.988;20.338;2023-02-15T08:53:23;21.25;;;14.55;;
70592;SDS011;58294;42.988;20.338;2023-02-15T08:55:55;18.85;;;14.32;;
70592;SDS011;58294;42.988;20.338;2023-02-15T08:58:22;18.45;;;14.05;;
70592;SDS011;58294;42.988;20.338;2023-02-15T09:00:48;30.52;;;16.13;;
70592;SDS011;58294;42.988;20.338;2023-02-15T09:03:13;21.33;;;14.70;;
70592;SDS011;58294;42.988;20.338;2023-02-15T09:05:39;18.92;;;14.20;;
70592;SDS011;58294;42.988;20.338;2023-02-15T09:08:05;21.20;;;15.60;;
70592;SDS011;58294;42.988;20.338;2023-02-15T09:10:30;21.60;;;14.32;;
70592;SDS011;58294;42.988;20.338;2023-02-15T09:12:56;20.30;;;14.80;;
70592;SDS011;58294;42.988;20.338;2023-02-15T09:15:22;24.10;;;17.70;;
70592;SDS011;58294;42.988;20.338;2023-02-15T09:17:47;21.35;;;16.15;;
70592;SDS011;58294;42.988;20.338;2023-02-15T09:20:13;21.17;;;16.15;;
70592;SDS011;58294;42.988;20.338;2023-02-15T09:22:39;20.95;;;16.90;;
70592;SDS011;58294;42.988;20.338;2023-02-15T09:25:05;23.42;;;17.15;;
70592;SDS011;58294;42.988;20.338;2023-02-15T09:27:31;20.77;;;14.73;;
70592;SDS011;58294;42.988;20.338;2023-02-15T09:29:56;19.58;;;14.13;;
70592;SDS011;58294;42.988;20.338;2023-02-15T09:32:22;26.45;;;17.33;;
70592;SDS011;58294;42.988;20.338;2023-02-15T09:34:48;23.77;;;17.88;;
70592;SDS011;58294;42.988;20.338;2023-02-15T09:37:13;21.38;;;16.75;;
70592;SDS011;58294;42.988;20.338;2023-02-15T09:39:40;28.65;;;25.20;;
70592;SDS011;58294;42.988;20.338;2023-02-15T09:58:59;31.50;;;22.08;;
70592;SDS011;58294;42.988;20.338;2023-02-15T10:28:42;23.15;;;18.35;;
70592;SDS011;58294;42.988;20.338;2023-02-15T10:34:18;20.80;;;17.80;;
70592;SDS011;58294;42.988;20.338;2023-02-15T10:45:15;20.02;;;16.38;;
70592;SDS011;58294;42.988;20.338;2023-02-15T10:56:04;27.65;;;24.30;;
70592;SDS011;58294;42.988;20.338;2023-02-15T10:58:43;28.00;;;23.08;;
70592;SDS011;58294;42.988;20.338;2023-02-15T11:06:14;22.60;;;20.20;;
70592;SDS011;58294;42.988;20.338;2023-02-15T11:08:51;25.10;;;19.70;;
70592;SDS011;58294;42.988;20.338;2023-02-15T11:11:29;22.98;;;19.15;;
70592;SDS011;58294;42.988;20.338;2023-02-15T11:14:00;23.52;;;17.77;;
70592;SDS011;58294;42.988;20.338;2023-02-15T11:16:32;21.42;;;16.90;;
70592;SDS011;58294;42.988;20.338;2023-02-15T11:19:03;22.20;;;18.35;;
70592;SDS011;58294;42.988;20.338;2023-02-15T11:21:57;24.58;;;20.70;;
70592;SDS011;58294;42.988;20.338;2023-02-15T11:24:29;27.27;;;21.15;;
70592;SDS011;58294;42.988;20.338;2023-02-15T11:29:32;19.42;;;16.70;;
70592;SDS011;58294;42.988;20.338;2023-02-15T11:32:03;22.70;;;19.20;;
70592;SDS011;58294;42.988;20.338;2023-02-15T11:34:40;21.17;;;16.27;;
70592;SDS011;58294;42.988;20.338;2023-02-15T11:37:11;19.90;;;14.10;;
70592;SDS011;58294;42.988;20.338;2023-02-15T11:39:38;17.52;;;13.50;;
70592;SDS011;58294;42.988;20.338;2023-02-15T11:42:07;17.42;;;14.82;;
70592;SDS011;58294;42.988;20.338;2023-02-15T11:44:42;19.83;;;15.00;;
70592;SDS011;58294;42.988;20.338;2023-02-15T11:47:13;19.02;;;14.38;;
70592;SDS011;58294;42.988;20.338;2023-02-15T11:49:39;37.88;;;26.05;;
70592;SDS011;58294;42.988;20.338;2023-02-15T11:52:06;18.23;;;14.02;;
70592;SDS011;58294;42.988;20.338;2023-02-15T11:54:36;17.42;;;12.75;;
70592;SDS011;58294;42.988;20.338;2023-02-15T11:57:14;17.33;;;12.27;;
70592;SDS011;58294;42.988;20.338;2023-02-15T11:59:56;22.13;;;14.05;;
70592;SDS011;58294;42.988;20.338;2023-02-15T12:02:29;12.67;;;11.00;;
70592;SDS011;58294;42.988;20.338;2023-02-15T12:05:02;17.20;;;13.52;;
70592;SDS011;58294;42.988;20.338;2023-02-15T12:07:54;22.60;;;13.47;;
70592;SDS011;58294;42.988;20.338;2023-02-15T12:10:24;21.85;;;12.52;;
70592;SDS011;58294;42.988;20.338;2023-02-15T12:13:22;15.55;;;13.80;;
70592;SDS011;58294;42.988;20.338;2023-02-15T12:15:48;14.90;;;11.68;;
70592;SDS011;58294;42.988;20.338;2023-02-15T12:18:20;30.10;;;16.13;;
70592;SDS011;58294;42.988;20.338;2023-02-15T12:20:58;17.40;;;12.55;;
70592;SDS011;58294;42.988;20.338;2023-02-15T12:23:27;24.88;;;14.23;;
70592;SDS011;58294;42.988;20.338;2023-02-15T12:25:54;16.30;;;12.30;;
70592;SDS011;58294;42.988;20.338;2023-02-15T12:30:57;13.95;;;12.35;;
70592;SDS011;58294;42.988;20.338;2023-02-15T12:33:39;16.63;;;11.95;;
70592;SDS011;58294;42.988;20.338;2023-02-15T12:42:01;13.25;;;9.95;;
70592;SDS011;58294;42.988;20.338;2023-02-15T12:44:40;12.98;;;11.15;;
70592;SDS011;58294;42.988;20.338;2023-02-15T12:47:22;12.57;;;11.30;;
70592;SDS011;58294;42.988;20.338;2023-02-15T12:52:41;18.30;;;9.75;;
70592;SDS011;58294;42.988;20.338;2023-02-15T12:55:22;14.57;;;9.50;;
70592;SDS011;58294;42.988;20.338;2023-02-15T13:00:43;12.63;;;9.45;;
70592;SDS011;58294;42.988;20.338;2023-02-15T13:03:17;14.65;;;10.73;;
70592;SDS011;58294;42.988;20.338;2023-02-15T13:05:46;17.00;;;12.05;;
70592;SDS011;58294;42.988;20.338;2023-02-15T13:08:20;14.13;;;10.80;;
70592;SDS011;58294;42.988;20.338;2023-02-15T13:13:21;16.40;;;12.23;;
70592;SDS011;58294;42.988;20.338;2023-02-15T13:15:52;18.88;;;12.32;;
70592;SDS011;58294;42.988;20.338;2023-02-15T13:18:32;23.63;;;21.30;;
70592;SDS011;58294;42.988;20.338;2023-02-15T13:24:05;11.32;;;9.98;;
70592;SDS011;58294;42.988;20.338;2023-02-15T13:26:55;13.05;;;9.95;;
70592;SDS011;58294;42.988;20.338;2023-02-15T13:29:23;14.68;;;10.23;;
70592;SDS011;58294;42.988;20.338;2023-02-15T13:31:51;16.50;;;12.73;;
70592;SDS011;58294;42.988;20.338;2023-02-15T13:34:20;18.05;;;13.38;;
70592;SDS011;58294;42.988;20.338;2023-02-15T13:39:54;15.52;;;11.57;;
70592;SDS011;58294;42.988;20.338;2023-02-15T13:48:00;11.75;;;9.35;;
70592;SDS011;58294;42.988;20.338;2023-02-15T13:53:01;13.60;;;10.23;;
70592;SDS011;58294;42.988;20.338;2023-02-15T14:03:40;17.33;;;11.95;;
70592;SDS011;58294;42.988;20.338;2023-02-15T14:06:37;12.07;;;9.45;;
70592;SDS011;58294;42.988;20.338;2023-02-15T14:15:12;13.30;;;9.52;;
70592;SDS011;58294;42.988;20.338;2023-02-15T14:18:05;13.00;;;9.88;;
70592;SDS011;58294;42.988;20.338;2023-02-15T14:25:46;74.75;;;68.53;;
70592;SDS011;58294;42.988;20.338;2023-02-15T14:28:28;34.20;;;30.55;;
70592;SDS011;58294;42.988;20.338;2023-02-15T14:31:10;39.60;;;26.88;;
70592;SDS011;58294;42.988;20.338;2023-02-15T14:33:52;26.95;;;19.27;;
70592;SDS011;58294;42.988;20.338;2023-02-15T14:36:20;22.85;;;17.15;;
70592;SDS011;58294;42.988;20.338;2023-02-15T14:41:17;91.85;;;82.88;;
70592;SDS011;58294;42.988;20.338;2023-02-15T14:46:53;182.95;;;162.40;;
70592;SDS011;58294;42.988;20.338;2023-02-15T14:49:37;23.42;;;17.23;;
70592;SDS011;58294;42.988;20.338;2023-02-15T14:52:05;51.75;;;38.38;;
70592;SDS011;58294;42.988;20.338;2023-02-15T15:07:21;30.92;;;26.83;;
70592;SDS011;58294;42.988;20.338;2023-02-15T15:09:59;21.65;;;17.63;;
70592;SDS011;58294;42.988;20.338;2023-02-15T15:12:41;27.10;;;20.45;;
70592;SDS011;58294;42.988;20.338;2023-02-15T15:25:50;39.70;;;20.02;;
70592;SDS011;58294;42.988;20.338;2023-02-15T15:37:30;83.50;;;58.75;;
70592;SDS011;58294;42.988;20.338;2023-02-15T15:40:40;76.10;;;58.92;;
70592;SDS011;58294;42.988;20.338;2023-02-15T15:48:49;69.25;;;50.53;;
70592;SDS011;58294;42.988;20.338;2023-02-15T15:51:20;70.65;;;47.03;;
70592;SDS011;58294;42.988;20.338;2023-02-15T15:53:53;58.88;;;42.78;;
70592;SDS011;58294;42.988;20.338;2023-02-15T15:56:24;66.35;;;45.88;;
70592;SDS011;58294;42.988;20.338;2023-02-15T15:59:00;51.03;;;39.05;;
70592;SDS011;58294;42.988;20.338;2023-02-15T16:01:29;54.20;;;38.70;;
70592;SDS011;58294;42.988;20.338;2023-02-15T16:03:59;63.10;;;40.85;;
70592;SDS011;58294;42.988;20.338;2023-02-15T16:06:29;67.82;;;51.00;;
70592;SDS011;58294;42.988;20.338;2023-02-15T16:11:43;62.47;;;43.42;;
70592;SDS011;58294;42.988;20.338;2023-02-15T16:14:23;67.28;;;43.03;;
70592;SDS011;58294;42.988;20.338;2023-02-15T16:16:54;67.40;;;46.13;;
70592;SDS011;58294;42.988;20.338;2023-02-15T16:19:24;71.55;;;47.67;;
70592;SDS011;58294;42.988;20.338;2023-02-15T16:21:53;60.33;;;41.50;;
70592;SDS011;58294;42.988;20.338;2023-02-15T16:29:45;82.47;;;59.53;;
70592;SDS011;58294;42.988;20.338;2023-02-15T16:32:20;82.10;;;61.25;;
70592;SDS011;58294;42.988;20.338;2023-02-15T16:34:58;95.82;;;66.78;;
70592;SDS011;58294;42.988;20.338;2023-02-15T16:37:26;99.18;;;73.00;;
70592;SDS011;58294;42.988;20.338;2023-02-15T16:39:56;100.97;;;85.80;;
70592;SDS011;58294;42.988;20.338;2023-02-15T16:42:22;87.20;;;77.28;;
70592;SDS011;58294;42.988;20.338;2023-02-15T16:44:50;78.65;;;70.25;;
70592;SDS011;58294;42.988;20.338;2023-02-15T16:47:27;74.35;;;59.53;;
70592;SDS011;58294;42.988;20.338;2023-02-15T16:49:56;62.28;;;50.05;;
70592;SDS011;58294;42.988;20.338;2023-02-15T16:52:25;70.22;;;51.88;;
70592;SDS011;58294;42.988;20.338;2023-02-15T16:55:02;56.97;;;41.40;;
70592;SDS011;58294;42.988;20.338;2023-02-15T16:57:30;59.78;;;48.55;;
70592;SDS011;58294;42.988;20.338;2023-02-15T17:00:04;69.68;;;45.50;;
70592;SDS011;58294;42.988;20.338;2023-02-15T17:02:55;64.82;;;49.25;;
70592;SDS011;58294;42.988;20.338;2023-02-15T17:05:23;54.85;;;41.22;;
70592;SDS011;58294;42.988;20.338;2023-02-15T17:13:27;59.63;;;47.97;;
70592;SDS011;58294;42.988;20.338;2023-02-15T17:18:43;51.50;;;41.80;;
70592;SDS011;58294;42.988;20.338;2023-02-15T17:21:11;50.75;;;38.28;;
70592;SDS011;58294;42.988;20.338;2023-02-15T17:23:42;45.78;;;36.17;;
70592;SDS011;58294;42.988;20.338;2023-02-15T17:28:49;49.95;;;36.80;;
70592;SDS011;58294;42.988;20.338;2023-02-15T17:31:17;38.45;;;32.38;;
70592;SDS011;58294;42.988;20.338;2023-02-15T17:33:44;40.95;;;29.55;;
70592;SDS011;58294;42.988;20.338;2023-02-15T17:36:17;39.80;;;31.55;;
70592;SDS011;58294;42.988;20.338;2023-02-15T17:39:06;46.63;;;34.42;;
70592;SDS011;58294;42.988;20.338;2023-02-15T17:41:45;41.85;;;30.73;;
70592;SDS011;58294;42.988;20.338;2023-02-15T17:44:12;50.92;;;39.33;;
70592;SDS011;58294;42.988;20.338;2023-02-15T17:46:40;47.85;;;37.95;;
70592;SDS011;58294;42.988;20.338;2023-02-15T17:49:10;50.40;;;38.38;;
70592;SDS011;58294;42.988;20.338;2023-02-15T17:51:43;45.72;;;39.00;;
70592;SDS011;58294;42.988;20.338;2023-02-15T17:54:09;54.22;;;42.00;;
70592;SDS011;58294;42.988;20.338;2023-02-15T17:56:54;66.40;;;46.10;;
70592;SDS011;58294;42.988;20.338;2023-02-15T17:59:19;59.78;;;48.90;;
70592;SDS011;58294;42.988;20.338;2023-02-15T18:01:46;57.10;;;47.42;;
70592;SDS011;58294;42.988;20.338;2023-02-15T18:04:32;68.35;;;52.53;;
70592;SDS011;58294;42.988;20.338;2023-02-15T18:07:19;73.20;;;57.78;;
70592;SDS011;58294;42.988;20.338;2023-02-15T18:10:14;61.25;;;50.08;;
70592;SDS011;58294;42.988;20.338;2023-02-15T18:13:01;71.45;;;56.92;;